sensor_id;sensor_type;location;lat;lon;timestamp;P1;durP1;ratioP1;P2;durP2;ratioP2
9117;SDS011;4594;50.994;7.126;2022-08-30T00:00:12;3.63;;;1.90;;
9117;SDS011;4594;50.994;7.126;2022-08-30T00:03:01;3.10;;;2.00;;
9117;SDS011;4594;50.994;7.126;2022-08-30T00:05:31;2.33;;;2.13;;
9117;SDS011;4594;50.994;7.126;2022-08-30T00:07:57;2.13;;;1.80;;
9117;SDS011;4594;50.994;7.126;2022-08-30T00:10:24;2.37;;;2.20;;
9117;SDS011;4594;50.994;7.126;2022-08-30T00:12:52;2.43;;;1.90;;
9117;SDS011;4594;50.994;7.126;2022-08-30T00:15:19;2.97;;;1.93;;
9117;SDS011;4594;50.994;7.126;2022-08-30T00:17:45;4.40;;;2.30;;
9117;SDS011;4594;50.994;7.126;2022-08-30T00:20:13;3.17;;;2.10;;
9117;SDS011;4594;50.994;7.126;2022-08-30T00:22:42;2.10;;;1.90;;
9117;SDS011;4594;50.994;7.126;2022-08-30T00:25:08;1.93;;;1.83;;
9117;SDS011;4594;50.994;7.126;2022-08-30T00:27:36;1.80;;;1.70;;
9117;SDS011;4594;50.994;7.126;2022-08-30T00:30:03;2.60;;;2.23;;
9117;SDS011;4594;50.994;7.126;2022-08-30T00:32:30;2.77;;;2.00;;
9117;SDS011;4594;50.994;7.126;2022-08-30T00:34:56;1.77;;;1.67;;
9117;SDS011;4594;50.994;7.126;2022-08-30T00:37:21;1.87;;;1.77;;
9117;SDS011;4594;50.994;7.126;2022-08-30T00:39:47;2.53;;;2.13;;
9117;SDS011;4594;50.994;7.126;2022-08-30T00:42:13;3.83;;;2.10;;
9117;SDS011;4594;50.994;7.126;2022-08-30T00:44:41;3.13;;;2.13;;
9117;SDS011;4594;50.994;7.126;2022-08-30T00:47:08;2.20;;;2.10;;
9117;SDS011;4594;50.994;7.126;2022-08-30T00:49:34;2.40;;;2.20;;
9117;SDS011;4594;50.994;7.126;2022-08-30T00:52:04;2.20;;;2.10;;
9117;SDS011;4594;50.994;7.126;2022-08-30T00:54:31;2.40;;;1.90;;
9117;SDS011;4594;50.994;7.126;2022-08-30T00:57:01;2.20;;;2.00;;
9117;SDS011;4594;50.994;7.126;2022-08-30T00:59:28;1.80;;;1.70;;
9117;SDS011;4594;50.994;7.126;2022-08-30T01:01:55;3.57;;;2.00;;
9117;SDS011;4594;50.994;7.126;2022-08-30T01:04:21;1.60;;;1.50;;
9117;SDS011;4594;50.994;7.126;2022-08-30T01:06:49;1.80;;;1.70;;
9117;SDS011;4594;50.994;7.126;2022-08-30T01:09:16;2.10;;;2.00;;
9117;SDS011;4594;50.994;7.126;2022-08-30T01:11:43;4.63;;;1.83;;
9117;SDS011;4594;50.994;7.126;2022-08-30T01:14:10;2.10;;;2.00;;
9117;SDS011;4594;50.994;7.126;2022-08-30T01:16:38;2.03;;;1.93;;
9117;SDS011;4594;50.994;7.126;2022-08-30T01:19:30;2.93;;;2.23;;
9117;SDS011;4594;50.994;7.126;2022-08-30T01:22:31;2.47;;;1.73;;
9117;SDS011;4594;50.994;7.126;2022-08-30T01:25:13;2.20;;;2.00;;
9117;SDS011;4594;50.994;7.126;2022-08-30T01:27:51;2.07;;;2.00;;
9117;SDS011;4594;50.994;7.126;2022-08-30T01:30:24;2.20;;;2.00;;
9117;SDS011;4594;50.994;7.126;2022-08-30T01:32:52;2.03;;;1.93;;
9117;SDS011;4594;50.994;7.126;2022-08-30T01:35:23;2.03;;;1.83;;
9117;SDS011;4594;50.994;7.126;2022-08-30T01:37:49;6.47;;;2.10;;
9117;SDS011;4594;50.994;7.126;2022-08-30T01:40:15;1.83;;;1.73;;
9117;SDS011;4594;50.994;7.126;2022-08-30T01:42:42;2.17;;;1.80;;
9117;SDS011;4594;50.994;7.126;2022-08-30T01:45:08;2.20;;;2.03;;
9117;SDS011;4594;50.994;7.126;2022-08-30T01:47:35;2.23;;;1.97;;
9117;SDS011;4594;50.994;7.126;2022-08-30T01:50:01;4.07;;;2.03;;
9117;SDS011;4594;50.994;7.126;2022-08-30T01:52:29;2.27;;;2.13;;
9117;SDS011;4594;50.994;7.126;2022-08-30T01:54:55;2.40;;;2.00;;
9117;SDS011;4594;50.994;7.126;2022-08-30T01:57:21;2.70;;;2.50;;
9117;SDS011;4594;50.994;7.126;2022-08-30T01:59:50;2.30;;;2.10;;
9117;SDS011;4594;50.994;7.126;2022-08-30T02:02:20;2.13;;;1.93;;
9117;SDS011;4594;50.994;7.126;2022-08-30T02:04:50;2.13;;;2.00;;
9117;SDS011;4594;50.994;7.126;2022-08-30T02:07:18;2.20;;;2.10;;
9117;SDS011;4594;50.994;7.126;2022-08-30T02:09:46;2.30;;;2.17;;
9117;SDS011;4594;50.994;7.126;2022-08-30T02:12:12;1.97;;;1.83;;
9117;SDS011;4594;50.994;7.126;2022-08-30T02:14:39;3.20;;;2.10;;
9117;SDS011;4594;50.994;7.126;2022-08-30T02:17:05;2.23;;;2.07;;
9117;SDS011;4594;50.994;7.126;2022-08-30T02:19:34;2.40;;;2.20;;
9117;SDS011;4594;50.994;7.126;2022-08-30T02:22:00;1.83;;;1.77;;
9117;SDS011;4594;50.994;7.126;2022-08-30T02:24:26;2.40;;;2.20;;
9117;SDS011;4594;50.994;7.126;2022-08-30T02:26:52;2.87;;;1.87;;
9117;SDS011;4594;50.994;7.126;2022-08-30T02:29:19;2.20;;;2.00;;
9117;SDS011;4594;50.994;7.126;2022-08-30T02:31:47;1.83;;;1.77;;
9117;SDS011;4594;50.994;7.126;2022-08-30T02:34:13;1.97;;;1.77;;
9117;SDS011;4594;50.994;7.126;2022-08-30T02:36:40;2.07;;;1.97;;
9117;SDS011;4594;50.994;7.126;2022-08-30T02:39:06;3.00;;;2.10;;
9117;SDS011;4594;50.994;7.126;2022-08-30T02:41:34;2.27;;;1.97;;
9117;SDS011;4594;50.994;7.126;2022-08-30T02:44:00;2.33;;;2.13;;
9117;SDS011;4594;50.994;7.126;2022-08-30T02:46:26;2.33;;;2.23;;
9117;SDS011;4594;50.994;7.126;2022-08-30T02:48:52;2.30;;;2.10;;
9117;SDS011;4594;50.994;7.126;2022-08-30T02:51:18;1.83;;;1.73;;
9117;SDS011;4594;50.994;7.126;2022-08-30T02:53:44;2.10;;;2.00;;
9117;SDS011;4594;50.994;7.126;2022-08-30T02:56:11;3.50;;;1.90;;
9117;SDS011;4594;50.994;7.126;2022-08-30T02:58:39;1.70;;;1.60;;
9117;SDS011;4594;50.994;7.126;2022-08-30T03:01:07;1.77;;;1.70;;
9117;SDS011;4594;50.994;7.126;2022-08-30T03:03:37;1.80;;;1.80;;
9117;SDS011;4594;50.994;7.126;2022-08-30T03:06:03;2.17;;;1.80;;
9117;SDS011;4594;50.994;7.126;2022-08-30T03:08:30;2.00;;;1.90;;
9117;SDS011;4594;50.994;7.126;2022-08-30T03:10:57;2.27;;;2.07;;
9117;SDS011;4594;50.994;7.126;2022-08-30T03:13:24;1.90;;;1.80;;
9117;SDS011;4594;50.994;7.126;2022-08-30T03:15:50;2.17;;;2.00;;
9117;SDS011;4594;50.994;7.126;2022-08-30T03:18:17;2.03;;;1.93;;
9117;SDS011;4594;50.994;7.126;2022-08-30T03:20:45;2.70;;;2.20;;
9117;SDS011;4594;50.994;7.126;2022-08-30T03:23:12;2.20;;;2.00;;
9117;SDS011;4594;50.994;7.126;2022-08-30T03:25:38;2.33;;;1.93;;
9117;SDS011;4594;50.994;7.126;2022-08-30T03:28:04;2.10;;;1.77;;
9117;SDS011;4594;50.994;7.126;2022-08-30T03:30:31;3.80;;;1.97;;
9117;SDS011;4594;50.994;7.126;2022-08-30T03:32:58;2.00;;;1.90;;
9117;SDS011;4594;50.994;7.126;2022-08-30T03:35:26;1.80;;;1.70;;
9117;SDS011;4594;50.994;7.126;2022-08-30T03:37:52;1.70;;;1.70;;
9117;SDS011;4594;50.994;7.126;2022-08-30T03:40:18;2.10;;;2.00;;
9117;SDS011;4594;50.994;7.126;2022-08-30T03:42:46;3.03;;;2.30;;
9117;SDS011;4594;50.994;7.126;2022-08-30T03:45:13;2.60;;;2.03;;
9117;SDS011;4594;50.994;7.126;2022-08-30T03:47:42;2.17;;;1.97;;
9117;SDS011;4594;50.994;7.126;2022-08-30T03:50:09;2.20;;;2.10;;
9117;SDS011;4594;50.994;7.126;2022-08-30T03:52:38;2.60;;;2.03;;
9117;SDS011;4594;50.994;7.126;2022-08-30T03:55:04;2.53;;;2.03;;
9117;SDS011;4594;50.994;7.126;2022-08-30T03:57:30;2.43;;;2.23;;
9117;SDS011;4594;50.994;7.126;2022-08-30T03:59:56;1.87;;;1.77;;
9117;SDS011;4594;50.994;7.126;2022-08-30T04:02:22;2.40;;;2.27;;
9117;SDS011;4594;50.994;7.126;2022-08-30T04:04:48;1.90;;;1.80;;
9117;SDS011;4594;50.994;7.126;2022-08-30T04:07:14;3.40;;;2.40;;
9117;SDS011;4594;50.994;7.126;2022-08-30T04:09:40;1.80;;;1.70;;
9117;SDS011;4594;50.994;7.126;2022-08-30T04:12:05;2.40;;;2.20;;
9117;SDS011;4594;50.994;7.126;2022-08-30T04:14:32;2.53;;;2.33;;
9117;SDS011;4594;50.994;7.126;2022-08-30T04:16:58;2.10;;;2.00;;
9117;SDS011;4594;50.994;7.126;2022-08-30T04:19:24;2.07;;;1.97;;
9117;SDS011;4594;50.994;7.126;2022-08-30T04:21:49;2.37;;;2.17;;
9117;SDS011;4594;50.994;7.126;2022-08-30T04:24:15;2.60;;;2.20;;
9117;SDS011;4594;50.994;7.126;2022-08-30T04:26:41;2.00;;;1.90;;
9117;SDS011;4594;50.994;7.126;2022-08-30T04:29:07;2.57;;;2.10;;
9117;SDS011;4594;50.994;7.126;2022-08-30T04:31:35;3.57;;;2.20;;
9117;SDS011;4594;50.994;7.126;2022-08-30T04:34:01;3.60;;;2.27;;
9117;SDS011;4594;50.994;7.126;2022-08-30T04:36:26;3.57;;;2.00;;
9117;SDS011;4594;50.994;7.126;2022-08-30T04:38:52;4.83;;;2.40;;
9117;SDS011;4594;50.994;7.126;2022-08-30T04:41:18;2.30;;;2.10;;
9117;SDS011;4594;50.994;7.126;2022-08-30T04:43:47;3.00;;;2.20;;
9117;SDS011;4594;50.994;7.126;2022-08-30T04:46:16;2.47;;;2.27;;
9117;SDS011;4594;50.994;7.126;2022-08-30T04:48:43;2.37;;;2.17;;
9117;SDS011;4594;50.994;7.126;2022-08-30T04:51:11;4.17;;;2.70;;
9117;SDS011;4594;50.994;7.126;2022-08-30T04:53:40;2.90;;;2.70;;
9117;SDS011;4594;50.994;7.126;2022-08-30T04:56:07;4.23;;;2.47;;
9117;SDS011;4594;50.994;7.126;2022-08-30T04:58:40;4.20;;;2.20;;
9117;SDS011;4594;50.994;7.126;2022-08-30T05:01:14;3.27;;;2.17;;
9117;SDS011;4594;50.994;7.126;2022-08-30T05:03:43;2.90;;;2.37;;
9117;SDS011;4594;50.994;7.126;2022-08-30T05:06:11;5.40;;;2.10;;
9117;SDS011;4594;50.994;7.126;2022-08-30T05:08:38;3.73;;;2.10;;
9117;SDS011;4594;50.994;7.126;2022-08-30T05:11:04;4.20;;;2.20;;
9117;SDS011;4594;50.994;7.126;2022-08-30T05:13:32;2.20;;;2.00;;
9117;SDS011;4594;50.994;7.126;2022-08-30T05:15:59;5.17;;;2.27;;
9117;SDS011;4594;50.994;7.126;2022-08-30T05:18:26;4.57;;;2.40;;
9117;SDS011;4594;50.994;7.126;2022-08-30T05:21:02;5.10;;;3.33;;
9117;SDS011;4594;50.994;7.126;2022-08-30T05:23:29;4.13;;;2.23;;
9117;SDS011;4594;50.994;7.126;2022-08-30T05:25:54;2.93;;;1.90;;
9117;SDS011;4594;50.994;7.126;2022-08-30T05:28:20;3.07;;;2.27;;
9117;SDS011;4594;50.994;7.126;2022-08-30T05:30:46;2.37;;;2.10;;
9117;SDS011;4594;50.994;7.126;2022-08-30T05:33:12;2.17;;;2.00;;
9117;SDS011;4594;50.994;7.126;2022-08-30T05:35:37;2.47;;;2.27;;
9117;SDS011;4594;50.994;7.126;2022-08-30T05:38:04;2.83;;;2.50;;
9117;SDS011;4594;50.994;7.126;2022-08-30T05:40:30;3.63;;;2.60;;
9117;SDS011;4594;50.994;7.126;2022-08-30T05:42:56;4.87;;;2.40;;
9117;SDS011;4594;50.994;7.126;2022-08-30T05:45:21;2.70;;;2.47;;
9117;SDS011;4594;50.994;7.126;2022-08-30T05:47:47;2.33;;;2.23;;
9117;SDS011;4594;50.994;7.126;2022-08-30T05:50:13;4.40;;;2.60;;
9117;SDS011;4594;50.994;7.126;2022-08-30T05:52:39;2.67;;;2.13;;
9117;SDS011;4594;50.994;7.126;2022-08-30T05:55:07;2.57;;;2.37;;
9117;SDS011;4594;50.994;7.126;2022-08-30T05:57:35;5.23;;;2.40;;
9117;SDS011;4594;50.994;7.126;2022-08-30T06:00:20;2.80;;;2.10;;
9117;SDS011;4594;50.994;7.126;2022-08-30T06:02:47;7.10;;;2.67;;
9117;SDS011;4594;50.994;7.126;2022-08-30T06:05:17;3.40;;;2.33;;
9117;SDS011;4594;50.994;7.126;2022-08-30T06:07:43;2.37;;;2.20;;
9117;SDS011;4594;50.994;7.126;2022-08-30T06:10:09;3.43;;;2.40;;
9117;SDS011;4594;50.994;7.126;2022-08-30T06:12:36;2.40;;;2.20;;
9117;SDS011;4594;50.994;7.126;2022-08-30T06:15:02;3.93;;;2.40;;
9117;SDS011;4594;50.994;7.126;2022-08-30T06:17:28;3.33;;;2.03;;
9117;SDS011;4594;50.994;7.126;2022-08-30T06:19:53;2.27;;;2.17;;
9117;SDS011;4594;50.994;7.126;2022-08-30T06:22:19;2.37;;;2.20;;
9117;SDS011;4594;50.994;7.126;2022-08-30T06:24:44;3.30;;;2.23;;
9117;SDS011;4594;50.994;7.126;2022-08-30T06:27:10;2.07;;;1.90;;
9117;SDS011;4594;50.994;7.126;2022-08-30T06:29:36;3.13;;;2.23;;
9117;SDS011;4594;50.994;7.126;2022-08-30T06:32:02;2.77;;;2.20;;
9117;SDS011;4594;50.994;7.126;2022-08-30T06:34:28;2.33;;;2.03;;
9117;SDS011;4594;50.994;7.126;2022-08-30T06:36:53;2.13;;;1.90;;
9117;SDS011;4594;50.994;7.126;2022-08-30T06:39:19;2.20;;;2.10;;
9117;SDS011;4594;50.994;7.126;2022-08-30T06:41:45;2.30;;;1.93;;
9117;SDS011;4594;50.994;7.126;2022-08-30T06:44:11;2.17;;;1.93;;
9117;SDS011;4594;50.994;7.126;2022-08-30T06:46:37;2.23;;;1.90;;
9117;SDS011;4594;50.994;7.126;2022-08-30T06:49:04;1.90;;;1.80;;
9117;SDS011;4594;50.994;7.126;2022-08-30T06:51:32;2.10;;;1.90;;
9117;SDS011;4594;50.994;7.126;2022-08-30T06:54:02;2.00;;;1.90;;
9117;SDS011;4594;50.994;7.126;2022-08-30T06:56:30;2.23;;;2.07;;
9117;SDS011;4594;50.994;7.126;2022-08-30T06:58:56;1.50;;;1.50;;
9117;SDS011;4594;50.994;7.126;2022-08-30T07:01:23;3.07;;;1.90;;
9117;SDS011;4594;50.994;7.126;2022-08-30T07:03:52;5.93;;;2.10;;
9117;SDS011;4594;50.994;7.126;2022-08-30T07:06:19;2.97;;;1.83;;
9117;SDS011;4594;50.994;7.126;2022-08-30T07:08:47;1.70;;;1.60;;
9117;SDS011;4594;50.994;7.126;2022-08-30T07:11:15;3.63;;;2.00;;
9117;SDS011;4594;50.994;7.126;2022-08-30T07:13:50;1.90;;;1.80;;
9117;SDS011;4594;50.994;7.126;2022-08-30T07:16:16;2.43;;;1.60;;
9117;SDS011;4594;50.994;7.126;2022-08-30T07:18:41;2.40;;;1.97;;
9117;SDS011;4594;50.994;7.126;2022-08-30T07:21:19;1.70;;;1.60;;
9117;SDS011;4594;50.994;7.126;2022-08-30T07:23:50;2.87;;;2.00;;
9117;SDS011;4594;50.994;7.126;2022-08-30T07:26:19;1.63;;;1.53;;
9117;SDS011;4594;50.994;7.126;2022-08-30T07:28:52;2.13;;;1.80;;
9117;SDS011;4594;50.994;7.126;2022-08-30T07:31:18;2.00;;;1.80;;
9117;SDS011;4594;50.994;7.126;2022-08-30T07:33:45;2.93;;;2.00;;
9117;SDS011;4594;50.994;7.126;2022-08-30T07:36:12;1.23;;;1.23;;
9117;SDS011;4594;50.994;7.126;2022-08-30T07:38:41;3.43;;;1.50;;
9117;SDS011;4594;50.994;7.126;2022-08-30T07:41:07;5.10;;;1.60;;
9117;SDS011;4594;50.994;7.126;2022-08-30T07:43:33;1.63;;;1.53;;
9117;SDS011;4594;50.994;7.126;2022-08-30T07:46:01;3.23;;;1.60;;
9117;SDS011;4594;50.994;7.126;2022-08-30T07:48:30;2.00;;;1.50;;
9117;SDS011;4594;50.994;7.126;2022-08-30T07:50:56;1.80;;;1.70;;
9117;SDS011;4594;50.994;7.126;2022-08-30T07:53:22;1.70;;;1.70;;
9117;SDS011;4594;50.994;7.126;2022-08-30T07:55:49;7.20;;;1.80;;
9117;SDS011;4594;50.994;7.126;2022-08-30T07:58:14;3.10;;;1.87;;
9117;SDS011;4594;50.994;7.126;2022-08-30T08:00:40;2.70;;;1.80;;
9117;SDS011;4594;50.994;7.126;2022-08-30T08:03:07;1.60;;;1.60;;
9117;SDS011;4594;50.994;7.126;2022-08-30T08:05:41;5.57;;;1.80;;
9117;SDS011;4594;50.994;7.126;2022-08-30T08:08:09;2.17;;;2.07;;
9117;SDS011;4594;50.994;7.126;2022-08-30T08:10:37;1.57;;;1.57;;
9117;SDS011;4594;50.994;7.126;2022-08-30T08:13:05;2.10;;;1.70;;
9117;SDS011;4594;50.994;7.126;2022-08-30T08:15:31;2.20;;;1.60;;
9117;SDS011;4594;50.994;7.126;2022-08-30T08:17:57;1.47;;;1.37;;
9117;SDS011;4594;50.994;7.126;2022-08-30T08:20:23;2.13;;;1.60;;
9117;SDS011;4594;50.994;7.126;2022-08-30T08:22:50;1.43;;;1.30;;
9117;SDS011;4594;50.994;7.126;2022-08-30T08:25:16;1.40;;;1.40;;
9117;SDS011;4594;50.994;7.126;2022-08-30T08:27:42;1.60;;;1.30;;
9117;SDS011;4594;50.994;7.126;2022-08-30T08:30:12;1.43;;;1.33;;
9117;SDS011;4594;50.994;7.126;2022-08-30T08:32:38;1.60;;;1.60;;
9117;SDS011;4594;50.994;7.126;2022-08-30T08:35:04;2.43;;;1.40;;
9117;SDS011;4594;50.994;7.126;2022-08-30T08:37:30;3.37;;;1.50;;
9117;SDS011;4594;50.994;7.126;2022-08-30T08:39:56;3.70;;;1.70;;
9117;SDS011;4594;50.994;7.126;2022-08-30T08:42:47;3.70;;;1.97;;
9117;SDS011;4594;50.994;7.126;2022-08-30T08:45:37;1.80;;;1.70;;
9117;SDS011;4594;50.994;7.126;2022-08-30T08:51:26;1.30;;;1.30;;
9117;SDS011;4594;50.994;7.126;2022-08-30T08:54:33;3.30;;;1.47;;
9117;SDS011;4594;50.994;7.126;2022-08-30T08:57:07;1.30;;;1.30;;
9117;SDS011;4594;50.994;7.126;2022-08-30T08:59:35;8.87;;;2.03;;
9117;SDS011;4594;50.994;7.126;2022-08-30T09:02:06;1.70;;;1.60;;
9117;SDS011;4594;50.994;7.126;2022-08-30T09:05:07;1.93;;;1.40;;
9117;SDS011;4594;50.994;7.126;2022-08-30T09:07:41;1.57;;;1.47;;
9117;SDS011;4594;50.994;7.126;2022-08-30T09:10:14;2.30;;;1.40;;
9117;SDS011;4594;50.994;7.126;2022-08-30T09:12:40;1.50;;;1.43;;
9117;SDS011;4594;50.994;7.126;2022-08-30T09:15:22;1.87;;;1.50;;
9117;SDS011;4594;50.994;7.126;2022-08-30T09:17:53;1.70;;;1.60;;
9117;SDS011;4594;50.994;7.126;2022-08-30T09:23:10;1.80;;;1.70;;
9117;SDS011;4594;50.994;7.126;2022-08-30T09:25:50;1.37;;;1.27;;
9117;SDS011;4594;50.994;7.126;2022-08-30T09:28:33;2.40;;;1.50;;
9117;SDS011;4594;50.994;7.126;2022-08-30T09:31:30;1.33;;;1.33;;
9117;SDS011;4594;50.994;7.126;2022-08-30T09:34:14;1.60;;;1.50;;
9117;SDS011;4594;50.994;7.126;2022-08-30T09:36:45;5.40;;;1.50;;
9117;SDS011;4594;50.994;7.126;2022-08-30T09:41:43;2.67;;;1.70;;
9117;SDS011;4594;50.994;7.126;2022-08-30T09:44:15;1.30;;;1.20;;
9117;SDS011;4594;50.994;7.126;2022-08-30T09:46:49;1.67;;;1.57;;
9117;SDS011;4594;50.994;7.126;2022-08-30T09:49:31;2.40;;;1.73;;
9117;SDS011;4594;50.994;7.126;2022-08-30T10:01:13;1.27;;;1.27;;
9117;SDS011;4594;50.994;7.126;2022-08-30T10:03:55;1.40;;;1.30;;
9117;SDS011;4594;50.994;7.126;2022-08-30T10:06:32;2.53;;;1.60;;
9117;SDS011;4594;50.994;7.126;2022-08-30T10:09:17;1.47;;;1.27;;
9117;SDS011;4594;50.994;7.126;2022-08-30T10:23:31;1.90;;;1.40;;
9117;SDS011;4594;50.994;7.126;2022-08-30T10:29:09;3.53;;;1.33;;
9117;SDS011;4594;50.994;7.126;2022-08-30T10:35:06;1.87;;;1.40;;
9117;SDS011;4594;50.994;7.126;2022-08-30T10:37:49;1.73;;;1.50;;
9117;SDS011;4594;50.994;7.126;2022-08-30T10:43:24;2.20;;;2.00;;
9117;SDS011;4594;50.994;7.126;2022-08-30T10:46:02;2.83;;;1.50;;
9117;SDS011;4594;50.994;7.126;2022-08-30T10:48:41;1.30;;;1.30;;
9117;SDS011;4594;50.994;7.126;2022-08-30T10:51:11;1.67;;;1.57;;
9117;SDS011;4594;50.994;7.126;2022-08-30T10:53:48;1.50;;;1.30;;
9117;SDS011;4594;50.994;7.126;2022-08-30T10:56:21;1.63;;;1.53;;
9117;SDS011;4594;50.994;7.126;2022-08-30T10:58:53;1.70;;;1.43;;
9117;SDS011;4594;50.994;7.126;2022-08-30T11:07:17;1.83;;;1.60;;
9117;SDS011;4594;50.994;7.126;2022-08-30T11:10:14;1.40;;;1.40;;
9117;SDS011;4594;50.994;7.126;2022-08-30T11:15:30;1.30;;;1.30;;
9117;SDS011;4594;50.994;7.126;2022-08-30T11:18:02;3.33;;;1.80;;
9117;SDS011;4594;50.994;7.126;2022-08-30T11:20:39;1.57;;;1.50;;
9117;SDS011;4594;50.994;7.126;2022-08-30T11:31:30;1.50;;;1.33;;
9117;SDS011;4594;50.994;7.126;2022-08-30T11:33:49;2.30;;;1.23;;
9117;SDS011;4594;50.994;7.126;2022-08-30T11:38:57;2.00;;;1.37;;
9117;SDS011;4594;50.994;7.126;2022-08-30T11:41:33;1.50;;;1.40;;
9117;SDS011;4594;50.994;7.126;2022-08-30T11:46:47;1.50;;;1.50;;
9117;SDS011;4594;50.994;7.126;2022-08-30T11:52:03;1.70;;;1.60;;
9117;SDS011;4594;50.994;7.126;2022-08-30T11:54:53;1.60;;;1.50;;
9117;SDS011;4594;50.994;7.126;2022-08-30T12:00:35;1.60;;;1.50;;
9117;SDS011;4594;50.994;7.126;2022-08-30T12:18:51;2.20;;;1.57;;
9117;SDS011;4594;50.994;7.126;2022-08-30T12:21:35;2.40;;;1.93;;
9117;SDS011;4594;50.994;7.126;2022-08-30T12:26:43;1.40;;;1.40;;
9117;SDS011;4594;50.994;7.126;2022-08-30T12:36:57;1.73;;;1.63;;
9117;SDS011;4594;50.994;7.126;2022-08-30T12:42:16;5.70;;;1.80;;
9117;SDS011;4594;50.994;7.126;2022-08-30T12:44:51;2.60;;;1.50;;
9117;SDS011;4594;50.994;7.126;2022-08-30T12:47:24;1.67;;;1.50;;
9117;SDS011;4594;50.994;7.126;2022-08-30T12:49:55;1.87;;;1.40;;
9117;SDS011;4594;50.994;7.126;2022-08-30T12:52:27;2.00;;;1.87;;
9117;SDS011;4594;50.994;7.126;2022-08-30T12:55:09;1.70;;;1.60;;
9117;SDS011;4594;50.994;7.126;2022-08-30T12:57:43;4.07;;;1.87;;
9117;SDS011;4594;50.994;7.126;2022-08-30T13:00:35;1.80;;;1.70;;
9117;SDS011;4594;50.994;7.126;2022-08-30T13:05:47;2.83;;;1.90;;
9117;SDS011;4594;50.994;7.126;2022-08-30T13:13:51;1.93;;;1.70;;
9117;SDS011;4594;50.994;7.126;2022-08-30T13:16:57;1.97;;;1.50;;
9117;SDS011;4594;50.994;7.126;2022-08-30T13:19:33;1.60;;;1.50;;
9117;SDS011;4594;50.994;7.126;2022-08-30T13:22:01;1.93;;;1.70;;
9117;SDS011;4594;50.994;7.126;2022-08-30T13:24:28;1.70;;;1.57;;
9117;SDS011;4594;50.994;7.126;2022-08-30T13:26:56;3.23;;;1.47;;
9117;SDS011;4594;50.994;7.126;2022-08-30T13:29:31;1.93;;;1.77;;
9117;SDS011;4594;50.994;7.126;2022-08-30T13:31:57;2.70;;;1.70;;
9117;SDS011;4594;50.994;7.126;2022-08-30T13:34:23;1.70;;;1.60;;
9117;SDS011;4594;50.994;7.126;2022-08-30T13:36:50;1.73;;;1.63;;
9117;SDS011;4594;50.994;7.126;2022-08-30T13:39:21;2.83;;;1.60;;
9117;SDS011;4594;50.994;7.126;2022-08-30T13:41:48;1.77;;;1.67;;
9117;SDS011;4594;50.994;7.126;2022-08-30T13:44:14;1.93;;;1.83;;
9117;SDS011;4594;50.994;7.126;2022-08-30T13:46:41;1.73;;;1.63;;
9117;SDS011;4594;50.994;7.126;2022-08-30T13:49:30;4.40;;;1.70;;
9117;SDS011;4594;50.994;7.126;2022-08-30T13:51:59;1.60;;;1.60;;
9117;SDS011;4594;50.994;7.126;2022-08-30T13:54:28;4.63;;;1.83;;
9117;SDS011;4594;50.994;7.126;2022-08-30T13:56:54;5.53;;;1.73;;
9117;SDS011;4594;50.994;7.126;2022-08-30T13:59:20;4.10;;;1.80;;
9117;SDS011;4594;50.994;7.126;2022-08-30T14:01:47;2.43;;;1.70;;
9117;SDS011;4594;50.994;7.126;2022-08-30T14:04:15;2.80;;;1.80;;
9117;SDS011;4594;50.994;7.126;2022-08-30T14:06:41;2.10;;;1.90;;
9117;SDS011;4594;50.994;7.126;2022-08-30T14:09:07;2.33;;;2.07;;
9117;SDS011;4594;50.994;7.126;2022-08-30T14:11:34;1.70;;;1.60;;
9117;SDS011;4594;50.994;7.126;2022-08-30T14:14:01;1.57;;;1.57;;
9117;SDS011;4594;50.994;7.126;2022-08-30T14:16:28;1.80;;;1.70;;
9117;SDS011;4594;50.994;7.126;2022-08-30T14:18:56;5.70;;;1.90;;
9117;SDS011;4594;50.994;7.126;2022-08-30T14:21:23;5.93;;;2.20;;
9117;SDS011;4594;50.994;7.126;2022-08-30T14:23:48;2.97;;;2.07;;
9117;SDS011;4594;50.994;7.126;2022-08-30T14:26:16;1.70;;;1.60;;
9117;SDS011;4594;50.994;7.126;2022-08-30T14:28:46;2.77;;;1.70;;
9117;SDS011;4594;50.994;7.126;2022-08-30T14:31:13;1.90;;;1.70;;
9117;SDS011;4594;50.994;7.126;2022-08-30T14:33:40;2.57;;;1.70;;
9117;SDS011;4594;50.994;7.126;2022-08-30T14:36:06;2.30;;;2.10;;
9117;SDS011;4594;50.994;7.126;2022-08-30T14:38:33;2.80;;;2.13;;
9117;SDS011;4594;50.994;7.126;2022-08-30T14:40:59;2.93;;;2.10;;
9117;SDS011;4594;50.994;7.126;2022-08-30T14:43:24;4.47;;;2.27;;
9117;SDS011;4594;50.994;7.126;2022-08-30T14:45:50;2.30;;;1.80;;
9117;SDS011;4594;50.994;7.126;2022-08-30T14:48:16;7.43;;;1.90;;
9117;SDS011;4594;50.994;7.126;2022-08-30T14:50:41;3.00;;;1.90;;
9117;SDS011;4594;50.994;7.126;2022-08-30T14:53:07;1.77;;;1.67;;
9117;SDS011;4594;50.994;7.126;2022-08-30T14:55:33;5.57;;;1.90;;
9117;SDS011;4594;50.994;7.126;2022-08-30T14:58:00;3.27;;;1.63;;
9117;SDS011;4594;50.994;7.126;2022-08-30T15:00:26;2.43;;;1.93;;
9117;SDS011;4594;50.994;7.126;2022-08-30T15:02:52;2.47;;;1.97;;
9117;SDS011;4594;50.994;7.126;2022-08-30T15:05:18;1.93;;;1.70;;
9117;SDS011;4594;50.994;7.126;2022-08-30T15:07:46;1.80;;;1.70;;
9117;SDS011;4594;50.994;7.126;2022-08-30T15:10:15;6.63;;;2.23;;
9117;SDS011;4594;50.994;7.126;2022-08-30T15:12:45;2.37;;;1.70;;
9117;SDS011;4594;50.994;7.126;2022-08-30T15:15:13;1.93;;;1.83;;
9117;SDS011;4594;50.994;7.126;2022-08-30T15:17:43;2.37;;;1.80;;
9117;SDS011;4594;50.994;7.126;2022-08-30T15:20:10;1.73;;;1.63;;
9117;SDS011;4594;50.994;7.126;2022-08-30T15:22:36;2.37;;;2.17;;
9117;SDS011;4594;50.994;7.126;2022-08-30T15:25:03;3.53;;;2.17;;
9117;SDS011;4594;50.994;7.126;2022-08-30T15:27:29;2.00;;;1.80;;
9117;SDS011;4594;50.994;7.126;2022-08-30T15:29:55;3.37;;;2.00;;
9117;SDS011;4594;50.994;7.126;2022-08-30T15:32:21;1.77;;;1.67;;
9117;SDS011;4594;50.994;7.126;2022-08-30T15:34:46;2.53;;;1.93;;
9117;SDS011;4594;50.994;7.126;2022-08-30T15:37:12;1.97;;;1.73;;
9117;SDS011;4594;50.994;7.126;2022-08-30T15:39:46;1.80;;;1.77;;
9117;SDS011;4594;50.994;7.126;2022-08-30T15:42:15;3.17;;;1.90;;
9117;SDS011;4594;50.994;7.126;2022-08-30T15:44:45;2.13;;;2.03;;
9117;SDS011;4594;50.994;7.126;2022-08-30T15:47:18;3.43;;;2.20;;
9117;SDS011;4594;50.994;7.126;2022-08-30T15:49:52;3.33;;;1.97;;
9117;SDS011;4594;50.994;7.126;2022-08-30T15:52:24;2.83;;;1.60;;
9117;SDS011;4594;50.994;7.126;2022-08-30T15:54:50;3.43;;;1.90;;
9117;SDS011;4594;50.994;7.126;2022-08-30T15:57:16;1.77;;;1.70;;
9117;SDS011;4594;50.994;7.126;2022-08-30T15:59:42;3.63;;;1.63;;
9117;SDS011;4594;50.994;7.126;2022-08-30T16:02:08;5.57;;;2.03;;
9117;SDS011;4594;50.994;7.126;2022-08-30T16:04:34;2.60;;;2.27;;
9117;SDS011;4594;50.994;7.126;2022-08-30T16:07:01;6.10;;;1.90;;
9117;SDS011;4594;50.994;7.126;2022-08-30T16:09:27;1.53;;;1.53;;
9117;SDS011;4594;50.994;7.126;2022-08-30T16:11:52;2.43;;;1.70;;
9117;SDS011;4594;50.994;7.126;2022-08-30T16:14:18;1.73;;;1.60;;
9117;SDS011;4594;50.994;7.126;2022-08-30T16:16:44;2.70;;;1.90;;
9117;SDS011;4594;50.994;7.126;2022-08-30T16:19:10;6.40;;;1.93;;
9117;SDS011;4594;50.994;7.126;2022-08-30T16:21:37;2.20;;;2.00;;
9117;SDS011;4594;50.994;7.126;2022-08-30T16:24:06;2.77;;;1.60;;
9117;SDS011;4594;50.994;7.126;2022-08-30T16:26:34;2.13;;;1.83;;
9117;SDS011;4594;50.994;7.126;2022-08-30T16:29:02;2.43;;;2.00;;
9117;SDS011;4594;50.994;7.126;2022-08-30T16:31:31;3.50;;;1.80;;
9117;SDS011;4594;50.994;7.126;2022-08-30T16:33:58;1.97;;;1.90;;
9117;SDS011;4594;50.994;7.126;2022-08-30T16:36:25;1.97;;;1.53;;
9117;SDS011;4594;50.994;7.126;2022-08-30T16:38:52;2.30;;;2.10;;
9117;SDS011;4594;50.994;7.126;2022-08-30T16:41:19;2.13;;;1.73;;
9117;SDS011;4594;50.994;7.126;2022-08-30T16:43:46;9.83;;;2.17;;
9117;SDS011;4594;50.994;7.126;2022-08-30T16:46:14;2.13;;;2.03;;
9117;SDS011;4594;50.994;7.126;2022-08-30T16:48:43;1.50;;;1.50;;
9117;SDS011;4594;50.994;7.126;2022-08-30T16:51:14;3.27;;;2.00;;
9117;SDS011;4594;50.994;7.126;2022-08-30T16:53:43;3.30;;;1.70;;
9117;SDS011;4594;50.994;7.126;2022-08-30T16:56:14;2.83;;;2.00;;
9117;SDS011;4594;50.994;7.126;2022-08-30T16:58:44;1.97;;;1.87;;
9117;SDS011;4594;50.994;7.126;2022-08-30T17:01:11;1.90;;;1.80;;
9117;SDS011;4594;50.994;7.126;2022-08-30T17:03:39;2.13;;;1.70;;
9117;SDS011;4594;50.994;7.126;2022-08-30T17:06:05;4.10;;;2.27;;
9117;SDS011;4594;50.994;7.126;2022-08-30T17:08:32;3.07;;;2.00;;
9117;SDS011;4594;50.994;7.126;2022-08-30T17:10:57;2.07;;;1.90;;